Des Moines, IA

10:14 AM CST on December 29, 2014 (GMT -0600)
Ames Municipal | Change Station
CLOSE
Current Station
Airport
Location: Ames,
Elevation: 955 ft
Nearby Weather Stations

Elev 955 ft 41.99 °N, 93.62 °W | Updated 21 minutes ago

Overcast
Overcast
21 °F
Feels Like 8 °F
N
14
Wind Variable Wind from NNE

Today
High -- | Low -- °F
--% Chance of Precip.
Yesterday
High -- | Low -- °F
Precip. -- in
7:40 AM 4:52 PM
First Quarter, 60% visible
Pressure 30.48 in
Visibility 2.0 miles
Clouds Mostly Cloudy 2300 ft
Overcast 4100 ft
Windchill 8 °F
Dew Point 15 °F
Humidity 78%
Rainfall 0.00 in
Snow Depth Not available.
UV 0 out of 12
Pollen .10 out of 12
Air Quality Not available.
Flu Activity Not available.
METAR KAMW 291553Z AUTO 03012KT 2SM -SN BKN023 OVC041 M06/M09 A3044 RMK AO2 SNB22 SLP319 P0000 T10611094

More Conditions Fewer Conditions

Pressure 30.48 in
Visibility 2.0 miles
Clouds Mostly Cloudy 2300 ft
Overcast 4100 ft
Windchill 8 °F
Dew Point 15 °F
Humidity 78%
Rainfall 0.00 in
Snow Depth Not available.
UV 0 out of 12
Pollen .10 out of 12
Air Quality Not available.
Flu Activity Not available.
METAR KAMW 291553Z AUTO 03012KT 2SM -SN BKN023 OVC041 M06/M09 A3044 RMK AO2 SNB22 SLP319 P0000 T10611094

More Conditions Fewer Conditions

10-Day Weather Forecast

Almanac

Astronomy

Dec. 29, 2014 Rise Set
Actual Time
Civil Twilight
Nautical Twilight
Astronomical Twilight
Moon
Length of Visible Light
Length of Day
Tomorrow will be .
, % of the Moon is Illuminated

Today's Extremes

State Highs State Lows

Community

WunderPhotos

Upload Photos

1,781,627 photos uploaded!

WunderBlogs® & News

Nearby

Air Quality

  Air Quality AQ Index Pollutant
Not available.

Snow Depth

Station Depth Elevation

Earthquake Activity

City Distance Mag. Time & Date
Minimum magnitude displayed is 2.5.

Coastal Water Temperatures

Place Temperature

Nearby Weather Stations